createdAt,value
2019-04-10T00:01:22.337Z,95788.92
2019-04-10T00:03:51.598Z,95785.56
2019-04-10T00:06:21.668Z,95794.00
2019-04-10T00:08:54.706Z,95789.28
2019-04-10T00:11:34.615Z,95792.13
2019-04-10T00:14:10.281Z,95793.62
2019-04-10T00:16:40.570Z,95791.84
2019-04-10T00:19:13.132Z,95786.72
2019-04-10T00:21:47.312Z,95787.28
2019-04-10T00:24:18.223Z,95781.81
2019-04-10T00:26:48.029Z,95781.39
2019-04-10T00:29:20.358Z,95775.73
2019-04-10T00:31:56.371Z,95773.20
2019-04-10T00:34:29.606Z,95786.11
2019-04-10T00:37:03.847Z,95782.84
2019-04-10T00:39:32.924Z,95780.42
2019-04-10T00:42:05.080Z,95782.13
2019-04-10T00:44:38.338Z,95783.64
2019-04-10T00:47:10.828Z,95780.35
2019-04-10T00:49:40.285Z,95782.42
2019-04-10T00:52:14.264Z,95777.38
2019-04-10T00:54:44.609Z,95777.93
2019-04-10T00:57:15.077Z,95778.86
2019-04-10T00:59:44.236Z,95771.10
2019-04-10T01:02:13.291Z,95772.43
2019-04-10T01:04:42.827Z,95773.94
2019-04-10T01:07:12.747Z,95765.06
2019-04-10T01:09:43.763Z,95768.56
2019-04-10T01:12:17.828Z,95764.17
2019-04-10T01:14:48.545Z,95766.13
2019-04-10T01:17:20.622Z,95761.41
2019-04-10T01:19:50.281Z,95762.59
2019-04-10T01:22:23.909Z,95761.16
2019-04-10T01:24:54.347Z,95784.33
2019-04-10T01:27:28.520Z,95758.83
2019-04-10T01:30:04.219Z,95763.03
2019-04-10T01:32:39.766Z,95761.81
2019-04-10T01:35:09.921Z,95758.42
2019-04-10T01:37:50.272Z,95752.53
2019-04-10T01:40:12.952Z,95758.84
2019-04-10T01:43:00.443Z,95758.44
2019-04-10T01:45:17.531Z,95757.34
2019-04-10T01:47:47.614Z,95757.50
2019-04-10T01:50:17.948Z,95755.61
2019-04-10T01:52:47.728Z,95753.19
2019-04-10T01:55:25.289Z,95755.03
2019-04-10T01:57:54.703Z,95750.92
2019-04-10T02:00:24.485Z,95755.73
2019-04-10T02:02:56.688Z,95752.70
2019-04-10T02:05:33.227Z,95749.09
2019-04-10T02:08:09.075Z,95747.61
2019-04-10T02:10:43.068Z,95746.09
2019-04-10T02:13:12.164Z,95748.50
2019-04-10T02:15:43.982Z,95746.61
2019-04-10T02:18:15.944Z,95748.76
2019-04-10T02:20:47.735Z,95744.84
2019-04-10T02:23:20.692Z,95748.44
2019-04-10T02:25:53.459Z,95744.58
2019-04-10T02:28:22.776Z,95742.45
2019-04-10T02:30:52.101Z,95740.37
2019-04-10T02:33:21.269Z,95741.88
2019-04-10T02:35:50.571Z,95743.93
2019-04-10T02:38:36.288Z,95738.14
2019-04-10T02:40:53.364Z,95742.88
2019-04-10T02:43:23.299Z,95741.55
2019-04-10T02:45:53.068Z,95740.52
2019-04-10T02:48:23.467Z,95745.69
2019-04-10T02:50:55.543Z,95738.42
2019-04-10T02:53:29.603Z,95738.73
2019-04-10T02:56:00.181Z,95744.17
2019-04-10T02:58:32.431Z,95741.86
2019-04-10T03:01:03.178Z,95739.17
2019-04-10T03:03:34.225Z,95738.81
2019-04-10T03:06:09.228Z,95742.09
2019-04-10T03:09:02.209Z,95744.92
2019-04-10T03:11:31.206Z,95745.97
2019-04-10T03:14:04.622Z,95737.89
2019-04-10T03:16:33.754Z,95743.16
2019-04-10T03:19:05.391Z,95739.22
2019-04-10T03:21:33.663Z,95735.18
2019-04-10T03:24:06.261Z,95735.55
2019-04-10T03:26:35.296Z,95733.72
2019-04-10T03:29:05.334Z,95733.30
2019-04-10T03:31:34.654Z,95732.13
2019-04-10T03:34:28.209Z,95746.69
2019-04-10T03:36:58.065Z,95742.02
2019-04-10T03:39:27.786Z,95746.25
2019-04-10T03:42:00.909Z,95739.16
2019-04-10T03:44:30.484Z,95749.06
2019-04-10T03:47:00.796Z,95746.18
2019-04-10T03:49:29.914Z,95742.47
2019-04-10T03:51:58.970Z,95742.14
2019-04-10T03:54:30.218Z,95748.50
2019-04-10T03:57:02.495Z,95747.45
2019-04-10T03:59:32.679Z,95751.36
2019-04-10T04:02:03.213Z,95753.95
2019-04-10T04:04:43.941Z,95750.84
2019-04-10T04:07:14.099Z,95751.12
2019-04-10T04:09:43.997Z,95748.61
2019-04-10T04:12:14.754Z,95750.55
2019-04-10T04:14:48.465Z,95754.67
2019-04-10T04:17:20.068Z,95754.23
2019-04-10T04:19:52.637Z,95750.86
2019-04-10T04:22:25.009Z,95755.75
2019-04-10T04:24:58.186Z,95753.99
2019-04-10T04:27:27.720Z,95755.91
2019-04-10T04:29:58.154Z,95754.33
2019-04-10T04:32:27.352Z,95749.36
2019-04-10T04:34:59.832Z,95753.77
2019-04-10T04:37:30.100Z,95755.34
2019-04-10T04:40:02.961Z,95761.23
2019-04-10T04:42:33.293Z,95760.38
2019-04-10T04:45:07.095Z,95762.23
2019-04-10T04:47:39.769Z,95759.11
2019-04-10T04:50:09.764Z,95763.98
2019-04-10T04:52:42.111Z,95761.89
2019-04-10T04:55:12.230Z,95770.63
2019-04-10T04:57:42.319Z,95770.95
2019-04-10T05:00:13.204Z,95801.63
2019-04-10T05:02:42.669Z,95774.45
2019-04-10T05:05:12.103Z,95779.42
2019-04-10T05:07:54.772Z,95781.06
2019-04-10T05:10:18.514Z,95779.77
2019-04-10T05:12:47.638Z,95784.00
2019-04-10T05:15:17.102Z,95788.46
2019-04-10T05:17:47.126Z,95790.55
2019-04-10T05:20:19.041Z,95785.81
2019-04-10T05:22:49.190Z,95794.70
2019-04-10T05:25:22.586Z,95795.42
2019-04-10T05:27:55.940Z,95799.06
2019-04-10T05:30:25.119Z,95796.34
2019-04-10T05:32:55.702Z,95803.56
2019-04-10T05:35:25.707Z,95804.20
2019-04-10T05:37:56.099Z,95808.84
2019-04-10T05:40:26.054Z,95810.93
2019-04-10T05:42:55.561Z,95808.19
2019-04-10T05:45:27.564Z,95805.28
2019-04-10T05:48:01.255Z,95803.97
2019-04-10T05:50:35.725Z,95809.46
2019-04-10T05:53:07.702Z,95812.37
2019-04-10T05:55:42.006Z,95814.34
2019-04-10T05:58:13.364Z,95811.66
2019-04-10T06:00:43.172Z,95810.50
2019-04-10T06:03:12.773Z,95813.33
2019-04-10T06:05:42.439Z,95817.30
2019-04-10T06:08:16.106Z,95813.45
2019-04-10T06:10:48.013Z,95816.13
2019-04-10T06:13:22.921Z,95815.84
2019-04-10T06:15:57.347Z,95818.42
2019-04-10T06:18:27.150Z,95819.30
2019-04-10T06:20:56.671Z,95827.15
2019-04-10T06:23:25.980Z,95823.94
2019-04-10T06:25:56.309Z,95825.63
2019-04-10T06:28:27.940Z,95826.13
2019-04-10T06:30:59.112Z,95829.66
2019-04-10T06:33:35.998Z,95819.27
2019-04-10T06:36:00.814Z,95819.08
2019-04-10T06:38:31.751Z,95823.80
2019-04-10T06:41:02.181Z,95822.17
2019-04-10T06:43:33.578Z,95823.87
2019-04-10T06:46:08.361Z,95817.50
2019-04-10T06:48:48.655Z,95821.05
2019-04-10T06:51:19.797Z,95819.52
2019-04-10T06:54:02.567Z,95821.19
2019-04-10T06:56:48.753Z,95824.19
2019-04-10T06:59:21.234Z,95824.06
2019-04-10T07:01:54.518Z,95823.53
2019-04-10T07:04:28.767Z,95824.94
2019-04-10T07:07:04.494Z,95824.74
2019-04-10T07:09:27.621Z,95821.22
2019-04-10T07:12:00.975Z,95821.40
2019-04-10T07:14:33.020Z,95818.18
2019-04-10T07:17:07.118Z,95822.95
2019-04-10T07:19:41.413Z,95816.50
2019-04-10T07:22:20.735Z,95820.47
2019-04-10T07:24:51.832Z,95825.67
2019-04-10T07:27:21.841Z,95828.80
2019-04-10T07:29:55.119Z,95830.02
2019-04-10T07:32:24.241Z,95826.78
2019-04-10T07:34:58.247Z,95832.08
2019-04-10T07:37:25.982Z,95834.06
2019-04-10T07:39:59.733Z,95831.85
2019-04-10T07:42:38.036Z,95839.36
2019-04-10T07:45:04.459Z,95837.86
2019-04-10T07:47:33.525Z,95845.65
2019-04-10T07:50:04.580Z,95844.66
2019-04-10T07:52:34.989Z,95841.63
2019-04-10T07:55:08.605Z,95845.21
2019-04-10T07:57:38.485Z,95846.17
2019-04-10T08:00:11.185Z,95851.84
2019-04-10T08:02:40.890Z,95851.88
2019-04-10T08:05:12.264Z,95852.34
2019-04-10T08:07:45.120Z,95853.61
2019-04-10T08:10:14.320Z,95855.69
2019-04-10T08:12:50.421Z,95852.61
2019-04-10T08:15:23.202Z,95853.01
2019-04-10T08:17:52.627Z,95856.03
2019-04-10T08:20:24.021Z,95849.88
2019-04-10T08:22:59.446Z,95854.91
2019-04-10T08:25:29.135Z,95857.56
2019-04-10T08:28:02.763Z,95860.17
2019-04-10T08:30:32.805Z,95559.82
2019-04-10T08:33:04.433Z,95864.14
2019-04-10T08:35:37.913Z,95860.09
2019-04-10T08:38:07.674Z,95866.41
2019-04-10T08:40:38.264Z,95864.36
2019-04-10T08:43:09.749Z,95864.95
2019-04-10T08:45:46.657Z,95866.30
2019-04-10T08:48:15.909Z,95869.23
2019-04-10T08:50:47.989Z,95878.91
2019-04-10T08:53:20.127Z,95872.63
2019-04-10T08:55:50.416Z,95878.37
2019-04-10T08:58:20.927Z,95873.42
2019-04-10T09:00:52.365Z,95872.69
2019-04-10T09:03:24.613Z,95872.39
2019-04-10T09:05:55.282Z,95871.20
2019-04-10T09:08:26.696Z,95875.03
2019-04-10T09:10:56.066Z,95871.63
2019-04-10T09:13:26.871Z,95872.66
2019-04-10T09:15:58.398Z,95872.32
2019-04-10T09:18:29.510Z,95867.23
2019-04-10T09:21:05.005Z,95864.73
2019-04-10T09:23:44.403Z,95865.89
2019-04-10T09:26:08.045Z,95869.80
2019-04-10T09:28:42.243Z,95897.70
2019-04-10T09:31:16.191Z,95874.63
2019-04-10T09:33:45.414Z,95872.91
2019-04-10T09:36:15.344Z,95876.22
2019-04-10T09:38:45.541Z,95879.25
2019-04-10T09:41:17.477Z,95877.94
2019-04-10T09:43:47.626Z,95880.36
2019-04-10T09:46:20.438Z,95881.29
2019-04-10T09:48:52.010Z,95906.20
2019-04-10T09:51:23.586Z,95883.07
2019-04-10T09:53:54.538Z,95887.98
2019-04-10T09:56:30.528Z,95899.55
2019-04-10T09:59:05.300Z,95896.27
2019-04-10T10:01:37.954Z,95895.18
2019-04-10T10:04:07.168Z,95896.57
2019-04-10T10:06:39.614Z,95897.52
2019-04-10T10:09:17.751Z,95897.73
2019-04-10T10:11:47.354Z,95899.43
2019-04-10T10:14:19.656Z,95896.48
2019-04-10T10:16:50.616Z,95898.20
2019-04-10T10:19:19.696Z,95895.24
2019-04-10T10:21:49.081Z,95894.50
2019-04-10T10:24:24.811Z,95892.12
2019-04-10T10:26:55.644Z,95897.45
2019-04-10T10:29:25.989Z,95900.28
2019-04-10T10:31:57.062Z,95889.83
2019-04-10T10:34:30.299Z,95892.14
2019-04-10T10:37:00.168Z,95900.04
2019-04-10T10:39:37.219Z,95890.39
2019-04-10T10:42:07.512Z,95889.86
2019-04-10T10:44:38.270Z,95891.27
2019-04-10T10:47:11.641Z,95890.40
2019-04-10T10:49:40.258Z,95890.23
2019-04-10T10:52:11.131Z,95897.26
2019-04-10T10:54:41.094Z,95884.17
2019-04-10T10:57:11.003Z,95893.81
2019-04-10T11:00:04.123Z,95897.64
2019-04-10T11:02:37.989Z,95897.55
2019-04-10T11:05:11.232Z,95921.48
2019-04-10T11:07:40.632Z,95892.53
2019-04-10T11:10:12.562Z,95897.16
2019-04-10T11:12:48.597Z,95897.30
2019-04-10T11:15:18.373Z,95894.32
2019-04-10T11:18:00.265Z,95607.59
2019-04-10T11:20:33.936Z,95903.27
2019-04-10T11:23:03.996Z,95898.58
2019-04-10T11:25:33.463Z,95900.31
2019-04-10T11:28:05.920Z,95895.91
2019-04-10T11:30:36.271Z,95900.98
2019-04-10T11:33:06.473Z,95894.98
2019-04-10T11:35:35.546Z,95921.54
2019-04-10T11:38:07.209Z,95893.28
2019-04-10T11:40:36.639Z,95893.25
2019-04-10T11:43:07.690Z,95898.59
2019-04-10T11:45:43.547Z,95895.89
2019-04-10T11:48:10.334Z,95901.30
2019-04-10T11:50:46.197Z,95899.87
2019-04-10T11:53:17.782Z,95898.33
2019-04-10T11:55:53.623Z,95897.56
2019-04-10T11:58:27.107Z,95900.00
2019-04-10T12:01:02.549Z,95907.58
2019-04-10T12:03:32.223Z,95909.91
2019-04-10T12:06:11.470Z,95910.07
2019-04-10T12:11:14.558Z,95912.06
2019-04-10T12:13:49.084Z,95913.16
2019-04-10T12:16:18.286Z,95914.46
2019-04-10T12:18:49.319Z,95911.17
2019-04-10T12:21:18.436Z,95915.20
2019-04-10T12:23:50.052Z,95911.08
2019-04-10T12:26:25.483Z,95911.20
2019-04-10T12:28:56.187Z,95917.16
2019-04-10T12:31:28.690Z,95909.66
2019-04-10T12:33:57.787Z,95913.25
2019-04-10T12:36:26.851Z,95915.02
2019-04-10T12:39:00.561Z,95913.30
2019-04-10T12:41:37.868Z,95910.54
2019-04-10T12:44:07.781Z,95908.25
2019-04-10T12:46:41.527Z,95904.41
2019-04-10T12:49:13.038Z,95904.17
2019-04-10T12:51:45.748Z,95906.88
2019-04-10T12:54:19.366Z,95910.17
2019-04-10T12:56:48.620Z,95910.30
2019-04-10T12:59:21.478Z,95918.52
2019-04-10T13:01:55.406Z,95941.11
2019-04-10T13:04:25.927Z,95918.23
2019-04-10T13:06:55.029Z,95926.53
2019-04-10T13:09:27.504Z,95922.10
2019-04-10T13:11:56.746Z,95919.06
2019-04-10T13:14:26.598Z,95914.91
2019-04-10T13:17:00.908Z,95922.30
2019-04-10T13:19:35.648Z,95923.46
2019-04-10T13:22:06.189Z,95921.42
2019-04-10T13:24:38.871Z,95920.86
2019-04-10T13:27:08.095Z,95924.16
2019-04-10T13:29:42.610Z,95918.33
2019-04-10T13:32:16.869Z,95925.70
2019-04-10T13:34:46.361Z,95925.03
2019-04-10T13:37:15.812Z,95928.82
2019-04-10T13:39:45.355Z,95930.87
2019-04-10T13:42:14.760Z,95931.55
2019-04-10T13:44:43.989Z,95933.03
2019-04-10T13:47:15.408Z,95925.83
2019-04-10T13:49:44.685Z,95930.55
2019-04-10T13:52:20.248Z,95928.25
2019-04-10T13:54:52.751Z,95929.83
2019-04-10T13:57:28.708Z,95934.28
2019-04-10T14:00:01.742Z,95936.99
2019-04-10T14:02:36.008Z,95932.27
2019-04-10T14:05:08.472Z,95933.03
2019-04-10T14:07:38.836Z,95937.66
2019-04-10T14:10:12.995Z,95940.68
2019-04-10T14:12:43.021Z,95942.22
2019-04-10T14:15:24.322Z,95941.11
2019-04-10T14:17:52.342Z,95944.55
2019-04-10T14:20:23.653Z,95943.28
2019-04-10T14:23:08.452Z,95945.42
2019-04-10T14:25:45.290Z,95945.52
2019-04-10T14:28:19.598Z,95945.41
2019-04-10T14:30:47.329Z,95953.41
2019-04-10T14:33:19.772Z,95951.84
2019-04-10T14:35:49.521Z,95951.89
2019-04-10T14:38:25.205Z,95952.16
2019-04-10T14:40:55.543Z,95958.98
2019-04-10T14:43:25.156Z,95959.55
2019-04-10T14:45:55.440Z,95960.08
2019-04-10T14:48:24.620Z,95965.08
2019-04-10T14:50:56.218Z,95961.17
2019-04-10T14:53:27.939Z,95965.30
2019-04-10T14:55:58.109Z,95962.90
2019-04-10T14:58:30.582Z,95966.54
2019-04-10T15:01:08.393Z,95965.00
2019-04-10T15:03:36.585Z,95968.52
2019-04-10T15:06:06.790Z,95978.95
2019-04-10T15:08:39.647Z,95972.85
2019-04-10T15:11:12.687Z,95973.75
2019-04-10T15:13:42.385Z,95971.77
2019-04-10T15:16:14.813Z,95972.76
2019-04-10T15:18:47.821Z,95964.88
2019-04-10T15:21:17.045Z,95966.66
2019-04-10T15:23:46.826Z,95969.41
2019-04-10T15:26:16.032Z,95974.30
2019-04-10T15:28:45.102Z,95973.88
2019-04-10T15:31:15.149Z,95978.16
2019-04-10T15:33:45.004Z,95979.09
2019-04-10T15:36:22.232Z,95977.52
2019-04-10T15:38:52.756Z,95975.98
2019-04-10T15:41:23.908Z,95973.80
2019-04-10T15:43:55.148Z,95981.60
2019-04-10T15:46:24.761Z,95977.00
2019-04-10T15:48:54.989Z,95976.03
2019-04-10T15:51:27.930Z,95983.55
2019-04-10T15:53:59.110Z,95985.38
2019-04-10T15:56:28.286Z,95989.42
2019-04-10T15:58:58.009Z,95990.59
2019-04-10T16:01:28.938Z,95989.25
2019-04-10T16:03:58.946Z,95989.91
2019-04-10T16:06:29.248Z,95984.97
2019-04-10T16:09:00.930Z,95987.22
2019-04-10T16:11:47.995Z,95987.55
2019-04-10T16:14:23.189Z,95990.69
2019-04-10T16:17:02.536Z,95994.67
2019-04-10T16:19:56.345Z,96019.41
2019-04-10T16:22:42.649Z,96004.83
2019-04-10T16:25:44.826Z,96002.28
2019-04-10T16:28:15.562Z,96000.06
2019-04-10T16:30:44.667Z,95997.08
2019-04-10T16:33:14.728Z,96002.83
2019-04-10T16:35:46.245Z,96004.78
2019-04-10T16:38:16.372Z,96008.63
2019-04-10T16:40:47.978Z,96008.86
2019-04-10T16:43:17.159Z,96008.41
2019-04-10T16:45:46.919Z,96015.92
2019-04-10T16:48:16.939Z,96012.39
2019-04-10T16:50:48.109Z,96012.33
2019-04-10T16:53:20.053Z,96016.27
2019-04-10T16:55:53.565Z,96015.27
2019-04-10T16:58:23.547Z,96024.72
2019-04-10T17:00:56.156Z,96021.98
2019-04-10T17:03:27.628Z,96019.71
2019-04-10T17:05:58.647Z,96025.47
2019-04-10T17:08:27.948Z,96026.61
2019-04-10T17:10:57.454Z,96029.84
2019-04-10T17:13:26.776Z,96040.25
2019-04-10T17:15:55.919Z,96033.05
2019-04-10T17:18:26.098Z,96035.84
2019-04-10T17:20:57.250Z,96040.73
2019-04-10T17:23:28.864Z,96037.82
2019-04-10T17:26:04.484Z,96041.55
2019-04-10T17:28:34.532Z,96038.69
2019-04-10T17:31:07.510Z,96040.47
2019-04-10T17:33:38.399Z,96040.59
2019-04-10T17:36:09.798Z,96040.09
2019-04-10T17:38:39.713Z,96039.66
2019-04-10T17:41:12.207Z,96043.63
2019-04-10T17:43:41.520Z,96053.22
2019-04-10T17:46:11.088Z,96048.44
2019-04-10T17:48:44.049Z,96049.97
2019-04-10T17:51:17.787Z,96053.11
2019-04-10T17:53:47.427Z,96054.05
2019-04-10T17:56:16.837Z,96056.68
2019-04-10T17:58:46.339Z,96068.86
2019-04-10T18:01:27.053Z,96063.84
2019-04-10T18:03:58.979Z,96067.91
2019-04-10T18:06:28.473Z,96068.52
2019-04-10T18:09:05.429Z,96072.20
2019-04-10T18:11:37.559Z,96072.52
2019-04-10T18:14:09.446Z,96074.07
2019-04-10T18:16:44.273Z,96072.95
2019-04-10T18:19:15.340Z,96075.92
2019-04-10T18:21:49.874Z,96082.03
2019-04-10T18:24:22.729Z,96087.66
2019-04-10T18:26:55.295Z,96089.14
2019-04-10T18:29:28.301Z,96089.55
2019-04-10T18:32:00.114Z,96096.31
2019-04-10T18:34:31.495Z,96104.56
2019-04-10T18:37:05.642Z,96105.14
2019-04-10T18:39:43.834Z,96103.64
2019-04-10T18:42:17.330Z,96118.55
2019-04-10T18:44:49.392Z,96125.31
2019-04-10T18:47:19.063Z,96120.42
2019-04-10T18:49:48.196Z,96121.47
2019-04-10T18:52:19.202Z,96121.37
2019-04-10T18:54:48.165Z,96129.72
2019-04-10T18:57:20.042Z,96130.74
2019-04-10T19:00:15.251Z,96129.55
2019-04-10T19:03:05.462Z,96134.50
2019-04-10T19:05:38.375Z,96134.12
2019-04-10T19:08:07.531Z,96135.90
2019-04-10T19:10:36.862Z,96138.45
2019-04-10T19:13:07.460Z,96133.56
2019-04-10T19:15:38.720Z,96145.91
2019-04-10T19:18:11.486Z,96143.02
2019-04-10T19:20:40.895Z,96140.62
2019-04-10T19:23:14.974Z,96145.13
2019-04-10T19:25:45.543Z,96146.39
2019-04-10T19:28:28.847Z,96143.78
2019-04-10T19:31:07.944Z,96146.42
2019-04-10T19:33:29.178Z,96151.94
2019-04-10T19:35:59.415Z,96151.73
2019-04-10T19:38:29.423Z,96149.59
2019-04-10T19:41:00.542Z,96157.42
2019-04-10T19:43:32.102Z,96156.31
2019-04-10T19:46:00.698Z,96160.59
2019-04-10T19:48:31.075Z,96164.25
2019-04-10T19:51:00.172Z,96161.03
2019-04-10T19:53:33.149Z,96165.53
2019-04-10T19:56:04.790Z,96174.37
2019-04-10T19:58:35.013Z,96167.69
2019-04-10T20:01:05.169Z,96167.13
2019-04-10T20:03:35.387Z,96172.87
2019-04-10T20:06:06.336Z,96172.95
2019-04-10T20:08:38.103Z,96175.93
2019-04-10T20:11:07.213Z,96185.70
2019-04-10T20:13:39.289Z,96181.23
2019-04-10T20:16:13.087Z,96185.44
2019-04-10T20:18:43.274Z,96124.97
2019-04-10T20:21:12.454Z,96193.89
2019-04-10T20:23:41.530Z,96188.05
2019-04-10T20:26:10.736Z,96186.09
2019-04-10T20:28:51.791Z,96181.60
2019-04-10T20:31:26.607Z,96184.84
2019-04-10T20:33:56.950Z,96183.96
2019-04-10T20:36:28.991Z,96185.00
2019-04-10T20:38:59.347Z,96188.42
2019-04-10T20:41:28.757Z,96187.96
2019-04-10T20:43:59.519Z,96181.98
2019-04-10T20:46:31.632Z,96184.64
2019-04-10T20:49:03.179Z,96181.22
2019-04-10T20:51:32.558Z,96181.46
2019-04-10T20:54:06.545Z,96181.00
2019-04-10T20:56:36.820Z,96176.44
2019-04-10T20:59:07.793Z,95938.93
2019-04-10T21:01:37.242Z,96182.97
2019-04-10T21:04:07.301Z,96179.66
2019-04-10T21:06:39.460Z,96184.41
2019-04-10T21:09:11.377Z,96187.12
2019-04-10T21:11:58.864Z,96180.98
2019-04-10T21:14:17.707Z,96184.38
2019-04-10T21:16:51.967Z,96190.28
2019-04-10T21:19:21.042Z,96186.68
2019-04-10T21:21:51.691Z,96191.38
2019-04-10T21:24:23.175Z,96130.76
2019-04-10T21:26:52.767Z,96199.66
2019-04-10T21:29:41.936Z,96197.66
2019-04-10T21:32:34.653Z,95867.26
2019-04-10T21:35:12.179Z,96200.61
2019-04-10T21:37:50.750Z,96203.25
2019-04-10T21:40:20.901Z,96207.72
2019-04-10T21:42:50.023Z,96202.72
2019-04-10T21:45:22.611Z,96202.20
2019-04-10T21:47:52.306Z,96210.66
2019-04-10T21:50:23.149Z,96207.78
2019-04-10T21:52:53.071Z,96211.45
2019-04-10T21:55:25.235Z,96212.53
2019-04-10T21:57:55.393Z,96215.17
2019-04-10T22:00:42.966Z,96213.30
2019-04-10T22:03:13.503Z,96217.56
2019-04-10T22:05:46.828Z,96224.43
2019-04-10T22:08:25.870Z,96230.26
2019-04-10T22:11:00.789Z,96226.84
2019-04-10T22:13:32.392Z,96231.56
2019-04-10T22:16:01.797Z,96230.77
2019-04-10T22:18:33.713Z,96230.78
2019-04-10T22:21:04.184Z,96240.53
2019-04-10T22:23:34.341Z,96240.30
2019-04-10T22:26:09.464Z,96242.13
2019-04-10T22:28:41.331Z,96243.98
2019-04-10T22:31:11.654Z,96247.69
2019-04-10T22:33:42.862Z,96253.74
2019-04-10T22:36:12.879Z,96262.19
2019-04-10T22:38:46.202Z,96261.89
2019-04-10T22:41:23.747Z,96266.12
2019-04-10T22:43:46.973Z,96266.66
2019-04-10T22:46:17.226Z,96268.27
2019-04-10T22:48:48.592Z,96262.98
2019-04-10T22:51:27.249Z,96271.39
2019-04-10T22:53:58.377Z,96267.44
2019-04-10T22:56:30.087Z,96264.30
2019-04-10T22:59:10.146Z,95948.14
2019-04-10T23:01:40.890Z,96266.22
2019-04-10T23:04:12.002Z,96262.73
2019-04-10T23:06:41.693Z,96254.75
2019-04-10T23:09:11.960Z,96267.34
2019-04-10T23:11:46.183Z,96266.89
2019-04-10T23:14:14.387Z,96268.94
2019-04-10T23:16:44.838Z,96266.67
2019-04-10T23:19:14.147Z,96280.44
2019-04-10T23:21:47.013Z,96276.31
2019-04-10T23:24:17.300Z,96273.67
2019-04-10T23:26:47.068Z,96283.30
2019-04-10T23:29:16.188Z,96282.14
2019-04-10T23:31:48.499Z,96285.34
2019-04-10T23:34:18.768Z,96282.06
2019-04-10T23:36:51.333Z,96282.72
2019-04-10T23:39:20.443Z,96290.74
2019-04-10T23:41:52.322Z,94841.02
2019-04-10T23:44:20.758Z,96286.52
2019-04-10T23:46:51.674Z,96291.39
2019-04-10T23:49:21.528Z,96294.95
2019-04-10T23:51:55.707Z,96301.52
2019-04-10T23:54:27.159Z,96297.84
2019-04-10T23:56:56.773Z,96298.18
2019-04-10T23:59:26.712Z,96290.03
